Time;durP1;ratioP1;P1;durP2;ratioP2;P2;SDS_P1;SDS_P2;PMS_P1;PMS_P2;Temp;Humidity;BMP_temperature;BMP_pressure;BME280_temperature;BME280_humidity;BME280_pressure;Samples;Min_cycle;Max_cycle;Signal;HPM_P1;HPM_P2
2024/04/21 00:00:31;;;;;;;6.90;2.00;;;4.40;99.90;;;;;;5302103;26;20486;-70
2024/04/21 00:03:01;;;;;;;8.40;2.33;;;4.40;99.90;;;;;;5313951;26;20593;-71
2024/04/21 00:05:31;;;;;;;10.10;2.83;;;4.30;99.90;;;;;;5345861;26;20587;-73
2024/04/21 00:08:01;;;;;;;7.20;2.40;;;4.30;99.90;;;;;;5318722;26;20473;-73
2024/04/21 00:10:29;;;;;;;8.00;2.43;;;4.50;99.90;;;;;;5335339;26;21094;-71
2024/04/21 00:12:58;;;;;;;8.70;3.03;;;4.60;99.90;;;;;;5318318;26;20501;-71
2024/04/21 00:15:26;;;;;;;8.00;3.00;;;4.50;99.90;;;;;;5339061;26;20483;-69
2024/04/21 00:17:55;;;;;;;7.77;2.33;;;4.50;99.90;;;;;;5329007;26;20473;-70
2024/04/21 00:20:22;;;;;;;7.50;2.53;;;4.60;99.90;;;;;;5334493;26;20475;-70
2024/04/21 00:22:55;;;;;;;9.50;2.53;;;4.80;99.90;;;;;;5338316;26;20532;-72
2024/04/21 00:25:22;;;;;;;7.77;2.40;;;4.90;99.90;;;;;;5341912;26;20527;-69
2024/04/21 00:27:52;;;;;;;7.50;1.73;;;5.00;99.90;;;;;;5339490;26;20535;-69
2024/04/21 00:30:19;;;;;;;7.30;2.00;;;5.00;99.90;;;;;;5340626;26;20465;-69
2024/04/21 00:32:48;;;;;;;7.20;2.40;;;5.10;99.90;;;;;;5339976;26;20512;-69
2024/04/21 00:35:16;;;;;;;7.17;2.13;;;5.10;99.90;;;;;;5341979;26;20481;-69
2024/04/21 00:37:45;;;;;;;7.53;2.07;;;4.90;99.90;;;;;;5338747;26;20465;-68
2024/04/21 00:40:15;;;;;;;7.60;1.90;;;4.80;99.90;;;;;;5340926;26;20533;-71
2024/04/21 00:42:48;;;;;;;6.90;1.67;;;4.90;99.90;;;;;;5340390;26;20462;-70
2024/04/21 00:45:15;;;;;;;7.00;1.77;;;5.00;99.90;;;;;;5341262;26;20469;-73
2024/04/21 00:47:58;;;;;;;7.07;1.97;;;5.10;99.90;;;;;;5325699;26;20473;-73
2024/04/21 00:50:26;;;;;;;8.13;1.83;;;5.00;99.90;;;;;;5340364;26;20478;-71
2024/04/21 00:52:56;;;;;;;6.70;1.60;;;5.10;99.90;;;;;;5340286;26;20470;-72
2024/04/21 00:55:27;;;;;;;6.93;1.60;;;5.00;99.90;;;;;;5332790;26;20467;-71
2024/04/21 00:57:57;;;;;;;7.20;2.03;;;5.00;99.90;;;;;;5339197;26;20471;-70
2024/04/21 01:00:26;;;;;;;7.00;1.97;;;4.90;99.90;;;;;;5339415;26;20468;-70
2024/04/21 01:02:55;;;;;;;7.70;2.10;;;4.90;99.90;;;;;;5336769;26;20467;-71
2024/04/21 01:05:22;;;;;;;7.57;2.47;;;5.00;99.90;;;;;;5340830;26;20532;-68
2024/04/21 01:07:52;;;;;;;6.70;1.47;;;5.00;99.90;;;;;;5338366;26;20462;-71
2024/04/21 01:10:19;;;;;;;7.97;1.97;;;5.10;99.90;;;;;;5339384;26;21471;-69
2024/04/21 01:12:52;;;;;;;6.87;1.63;;;5.20;99.90;;;;;;5340330;26;20464;-68
2024/04/21 01:15:19;;;;;;;7.20;1.90;;;5.20;99.90;;;;;;5341177;26;20464;-69
2024/04/21 01:17:49;;;;;;;6.63;1.73;;;5.40;99.90;;;;;;5340883;26;20475;-68
2024/04/21 01:20:16;;;;;;;6.73;1.43;;;5.40;99.90;;;;;;5340440;26;20483;-69
2024/04/21 01:22:50;;;;;;;6.80;1.50;;;5.40;99.90;;;;;;5340806;26;20602;-70
2024/04/21 01:25:17;;;;;;;6.70;1.10;;;5.40;99.90;;;;;;5341017;26;20864;-69
2024/04/21 01:27:47;;;;;;;6.60;1.40;;;5.40;99.90;;;;;;5338056;26;20590;-69
2024/04/21 01:30:14;;;;;;;6.70;1.20;;;5.40;99.90;;;;;;5339438;26;20562;-70
2024/04/21 01:32:43;;;;;;;6.17;1.00;;;5.30;99.90;;;;;;5338735;26;20466;-69
2024/04/21 01:35:11;;;;;;;8.73;1.27;;;5.30;99.90;;;;;;5340231;26;20523;-69
2024/04/21 01:37:40;;;;;;;6.00;1.00;;;5.40;99.90;;;;;;5335708;26;20523;-70
2024/04/21 01:40:11;;;;;;;6.03;0.93;;;5.30;99.90;;;;;;5339182;26;21081;-69
2024/04/21 01:42:41;;;;;;;5.83;0.73;;;5.30;99.90;;;;;;5340499;26;20490;-70
2024/04/21 01:45:08;;;;;;;6.00;0.97;;;5.40;99.90;;;;;;5338889;26;20471;-71
2024/04/21 01:47:38;;;;;;;5.67;0.63;;;5.40;99.90;;;;;;5338958;26;20467;-71
2024/04/21 01:50:06;;;;;;;5.63;0.60;;;5.40;99.90;;;;;;5338220;26;20481;-71
2024/04/21 01:52:36;;;;;;;6.40;0.90;;;5.50;99.90;;;;;;5338520;26;20480;-69
2024/04/21 01:55:04;;;;;;;6.10;1.00;;;5.40;99.90;;;;;;5339297;26;20579;-70
2024/04/21 01:57:37;;;;;;;6.00;0.90;;;5.40;99.90;;;;;;5337635;26;20476;-69
2024/04/21 02:00:06;;;;;;;5.90;0.90;;;5.50;99.90;;;;;;5332183;26;20474;-69
2024/04/21 02:02:35;;;;;;;6.47;1.03;;;5.50;99.90;;;;;;5339896;26;21029;-70
2024/04/21 02:05:03;;;;;;;5.93;0.80;;;5.50;99.90;;;;;;5331130;26;21084;-69
2024/04/21 02:07:32;;;;;;;5.90;0.97;;;5.50;99.90;;;;;;5340026;26;20471;-71
2024/04/21 02:10:00;;;;;;;6.23;0.77;;;5.50;99.90;;;;;;5338448;26;20511;-70
2024/04/21 02:12:29;;;;;;;6.23;0.90;;;5.60;99.90;;;;;;5339639;26;21168;-70
2024/04/21 02:14:59;;;;;;;6.97;0.90;;;5.50;99.90;;;;;;5339332;26;20534;-71
2024/04/21 02:17:29;;;;;;;6.40;1.20;;;5.40;99.90;;;;;;5340246;26;20516;-71
2024/04/21 02:19:56;;;;;;;6.70;1.00;;;5.30;99.90;;;;;;5337868;26;20479;-70
2024/04/21 02:22:25;;;;;;;7.50;1.13;;;5.20;99.90;;;;;;5339047;26;20473;-70
2024/04/21 02:24:52;;;;;;;6.70;1.20;;;5.10;99.90;;;;;;5339329;26;20463;-71
2024/04/21 02:27:22;;;;;;;8.03;1.07;;;5.00;99.90;;;;;;5339761;26;20462;-74
2024/04/21 02:29:50;;;;;;;6.80;1.23;;;5.00;99.90;;;;;;5339097;26;20528;-70
2024/04/21 02:32:22;;;;;;;6.10;1.10;;;4.90;99.90;;;;;;5340185;26;20468;-72
2024/04/21 02:34:49;;;;;;;6.83;1.33;;;4.90;99.90;;;;;;5339119;26;20459;-70
2024/04/21 02:37:19;;;;;;;6.63;1.27;;;4.90;99.90;;;;;;5340054;26;20472;-70
2024/04/21 02:39:46;;;;;;;7.07;1.60;;;4.90;99.90;;;;;;5335815;26;20469;-71
2024/04/21 02:42:15;;;;;;;9.10;1.80;;;4.90;99.90;;;;;;5339971;26;21314;-70
2024/04/21 02:44:43;;;;;;;7.17;1.50;;;5.00;99.90;;;;;;5338512;26;20467;-71
2024/04/21 02:47:12;;;;;;;12.17;2.50;;;4.90;99.90;;;;;;5338798;26;20503;-70
2024/04/21 02:49:42;;;;;;;8.77;2.43;;;4.80;99.90;;;;;;5337639;26;20491;-71
2024/04/21 02:52:12;;;;;;;11.77;3.27;;;4.50;99.90;;;;;;5339660;26;21065;-71
2024/04/21 02:54:39;;;;;;;13.57;4.20;;;4.30;99.90;;;;;;5339251;26;20551;-69
2024/04/21 02:57:08;;;;;;;9.80;3.83;;;4.20;99.90;;;;;;5339915;26;20471;-69
2024/04/21 02:59:36;;;;;;;9.20;4.07;;;4.20;99.90;;;;;;5333626;26;20475;-69
2024/04/21 03:02:05;;;;;;;11.77;5.03;;;4.10;99.90;;;;;;5339291;26;20511;-71
2024/04/21 03:04:34;;;;;;;11.10;4.60;;;4.10;99.90;;;;;;5333112;26;20464;-71
2024/04/21 03:07:06;;;;;;;10.57;4.70;;;4.10;99.90;;;;;;5338722;26;20594;-73
2024/04/21 03:09:34;;;;;;;9.73;4.73;;;4.00;99.90;;;;;;5338011;26;20581;-72
2024/04/21 03:12:03;;;;;;;9.40;4.10;;;4.10;99.90;;;;;;5331860;26;21085;-69
2024/04/21 03:14:31;;;;;;;10.10;4.27;;;4.00;99.90;;;;;;5339522;26;20475;-71
2024/04/21 03:17:00;;;;;;;10.70;4.17;;;4.00;99.90;;;;;;5339154;26;21011;-72
2024/04/21 03:19:28;;;;;;;8.87;4.00;;;4.00;99.90;;;;;;5335648;26;21252;-71
2024/04/21 03:21:58;;;;;;;11.40;4.20;;;4.00;99.90;;;;;;5338839;26;20455;-72
2024/04/21 03:24:28;;;;;;;9.00;3.67;;;4.00;99.90;;;;;;5336881;26;20455;-71
2024/04/21 03:26:58;;;;;;;10.97;3.83;;;4.00;99.90;;;;;;5338152;26;20515;-72
2024/04/21 03:29:26;;;;;;;9.77;4.20;;;4.10;99.90;;;;;;5336387;26;20467;-70
2024/04/21 03:31:55;;;;;;;10.97;3.97;;;4.10;99.90;;;;;;5338014;26;20460;-70
2024/04/21 03:34:22;;;;;;;11.87;4.57;;;4.10;99.90;;;;;;5337274;26;20468;-70
2024/04/21 03:36:52;;;;;;;8.90;3.90;;;4.10;99.90;;;;;;5338118;26;20555;-72
2024/04/21 03:39:22;;;;;;;9.73;3.87;;;4.20;99.90;;;;;;5334031;26;20479;-69
2024/04/21 03:41:54;;;;;;;8.60;3.90;;;4.20;99.90;;;;;;5337740;26;20516;-70
2024/04/21 03:44:24;;;;;;;8.40;3.60;;;4.20;99.90;;;;;;5336348;26;20528;-69
2024/04/21 03:46:51;;;;;;;10.27;4.60;;;4.10;99.90;;;;;;5337948;26;20467;-68
2024/04/21 03:49:21;;;;;;;9.60;4.43;;;4.20;99.90;;;;;;5335422;26;20663;-73
2024/04/21 03:51:48;;;;;;;11.60;5.10;;;4.20;99.90;;;;;;5336984;26;20467;-69
2024/04/21 03:54:18;;;;;;;11.10;4.30;;;4.20;99.90;;;;;;5338062;26;20480;-72
2024/04/21 03:56:45;;;;;;;11.30;4.87;;;4.20;99.90;;;;;;5334960;26;20467;-69
2024/04/21 03:59:17;;;;;;;10.13;5.13;;;4.20;99.90;;;;;;5337796;26;20475;-68
2024/04/21 04:01:45;;;;;;;9.40;4.20;;;4.20;99.90;;;;;;5337618;26;21079;-68
2024/04/21 04:04:15;;;;;;;9.30;4.10;;;4.20;99.90;;;;;;5337360;26;20524;-69
2024/04/21 04:06:42;;;;;;;11.13;5.00;;;4.30;99.90;;;;;;5338106;26;20518;-69
2024/04/21 04:09:12;;;;;;;10.20;4.60;;;4.30;99.90;;;;;;5337075;26;20487;-71
2024/04/21 04:11:39;;;;;;;10.50;4.50;;;4.30;99.90;;;;;;5336734;26;21115;-73
2024/04/21 04:14:08;;;;;;;10.13;4.93;;;4.30;99.90;;;;;;5338443;26;20519;-69
2024/04/21 04:16:38;;;;;;;9.50;4.77;;;4.30;99.90;;;;;;5319132;26;20513;-72
2024/04/21 04:19:08;;;;;;;10.50;5.00;;;4.30;99.90;;;;;;5330448;26;20475;-73
2024/04/21 04:21:35;;;;;;;10.53;4.57;;;4.30;99.90;;;;;;5328639;26;20592;-70
2024/04/21 04:24:04;;;;;;;10.25;5.20;;;4.20;99.90;;;;;;5337632;26;20365;-70
2024/04/21 04:26:32;;;;;;;10.50;4.70;;;4.10;99.90;;;;;;5337342;26;20295;-71
2024/04/21 04:29:01;;;;;;;10.27;4.70;;;4.10;99.90;;;;;;5336421;26;20479;-70
2024/04/21 04:31:28;;;;;;;8.93;3.90;;;4.10;99.90;;;;;;5336024;26;20536;-71
2024/04/21 04:34:01;;;;;;;9.47;3.93;;;4.10;99.90;;;;;;5337387;26;20523;-70
2024/04/21 04:36:28;;;;;;;10.40;3.87;;;4.10;99.90;;;;;;5336598;26;20611;-72
2024/04/21 04:38:57;;;;;;;8.43;3.30;;;4.10;99.90;;;;;;5335816;26;20480;-71
2024/04/21 04:41:24;;;;;;;8.77;3.70;;;4.00;99.90;;;;;;5334695;26;20459;-70
2024/04/21 04:43:54;;;;;;;8.70;3.40;;;4.00;99.90;;;;;;5333505;26;20537;-72
2024/04/21 04:46:21;;;;;;;9.40;3.53;;;3.90;99.90;;;;;;5328354;26;20480;-70
2024/04/21 04:48:51;;;;;;;9.07;3.10;;;4.00;99.90;;;;;;5335618;26;20518;-70
2024/04/21 04:51:21;;;;;;;7.63;2.30;;;4.10;99.90;;;;;;5335580;26;20515;-70
2024/04/21 04:53:51;;;;;;;7.80;2.50;;;4.00;99.90;;;;;;5336306;26;21076;-70
2024/04/21 04:56:18;;;;;;;8.00;2.63;;;4.10;99.90;;;;;;5336210;26;21095;-69
2024/04/21 04:58:48;;;;;;;7.83;2.00;;;4.10;99.90;;;;;;5336358;26;20528;-72
2024/04/21 05:01:15;;;;;;;7.50;1.70;;;4.10;99.90;;;;;;5333235;26;20563;-72
2024/04/21 05:03:45;;;;;;;7.03;2.13;;;4.10;99.90;;;;;;5337262;26;20467;-69
2024/04/21 05:06:12;;;;;;;7.40;2.27;;;4.10;99.90;;;;;;5331665;26;21039;-69
2024/04/21 05:08:44;;;;;;;8.50;2.00;;;4.00;99.90;;;;;;5337041;26;20478;-69
2024/04/21 05:11:11;;;;;;;8.00;2.00;;;4.00;99.90;;;;;;5338907;26;20526;-69
2024/04/21 05:13:41;;;;;;;12.00;2.00;;;4.00;99.90;;;;;;5340297;26;20467;-69
2024/04/21 05:16:08;;;;;;;12.73;2.47;;;3.90;99.90;;;;;;5339819;26;20558;-68
2024/04/21 05:18:38;;;;;;;8.00;3.10;;;3.90;99.90;;;;;;5339414;26;20483;-71
2024/04/21 05:21:05;;;;;;;10.13;2.30;;;3.80;99.90;;;;;;5339873;26;21501;-68
2024/04/21 05:23:36;;;;;;;10.53;2.43;;;3.80;99.90;;;;;;5340000;26;21084;-69
2024/04/21 05:26:06;;;;;;;8.70;2.20;;;3.80;99.90;;;;;;5331140;26;20471;-68
2024/04/21 05:28:35;;;;;;;11.50;2.40;;;3.80;99.90;;;;;;5333925;26;20473;-69
2024/04/21 05:31:15;;;;;;;10.77;2.17;;;3.80;99.90;;;;;;5335543;26;20517;-72
2024/04/21 05:33:45;;;;;;;7.73;2.30;;;3.80;99.90;;;;;;5339614;26;20467;-70
2024/04/21 05:36:13;;;;;;;8.93;1.87;;;3.80;99.90;;;;;;5340241;26;20487;-69
2024/04/21 05:38:43;;;;;;;11.43;2.47;;;3.70;99.90;;;;;;5335253;26;20471;-71
2024/04/21 05:41:13;;;;;;;8.10;2.00;;;3.80;99.90;;;;;;5340356;26;20523;-69
2024/04/21 05:43:42;;;;;;;14.17;2.40;;;3.80;99.90;;;;;;5340418;26;21332;-72
2024/04/21 05:46:09;;;;;;;9.47;2.50;;;3.80;99.90;;;;;;5340571;26;20464;-69
2024/04/21 05:48:39;;;;;;;12.63;2.50;;;3.80;99.90;;;;;;5338822;26;20471;-71
2024/04/21 05:51:06;;;;;;;7.70;2.03;;;3.80;99.90;;;;;;5325710;26;21024;-70
2024/04/21 05:53:36;;;;;;;11.90;2.73;;;3.70;99.90;;;;;;5347717;26;20531;-70
2024/04/21 05:56:03;;;;;;;9.60;2.83;;;3.70;99.90;;;;;;5339437;26;20464;-70
2024/04/21 05:58:36;;;;;;;10.93;2.80;;;3.90;99.90;;;;;;5346780;26;20525;-71
2024/04/21 06:01:03;;;;;;;9.47;2.23;;;3.90;99.90;;;;;;5340018;26;20483;-70
2024/04/21 06:03:33;;;;;;;11.43;2.60;;;4.00;99.90;;;;;;5339705;26;20468;-70
2024/04/21 06:06:00;;;;;;;8.17;2.20;;;4.10;99.90;;;;;;5340309;26;20456;-69
2024/04/21 06:08:30;;;;;;;10.00;2.27;;;4.10;99.90;;;;;;5338733;26;20917;-70
2024/04/21 06:10:57;;;;;;;11.40;2.33;;;4.10;99.90;;;;;;5348766;26;20471;-70
2024/04/21 06:13:27;;;;;;;9.23;2.20;;;4.10;99.90;;;;;;5335893;26;20536;-72
2024/04/21 06:15:56;;;;;;;8.20;1.80;;;4.20;99.90;;;;;;5339563;26;20468;-69
2024/04/21 06:18:26;;;;;;;9.23;2.17;;;4.30;99.90;;;;;;5338020;26;20487;-71
2024/04/21 06:20:53;;;;;;;8.90;1.87;;;4.40;99.90;;;;;;5340154;26;20561;-72
2024/04/21 06:23:23;;;;;;;8.37;2.57;;;4.50;99.90;;;;;;5337776;26;21195;-69
2024/04/21 06:25:50;;;;;;;9.03;2.00;;;4.50;99.90;;;;;;5339709;26;20528;-69
2024/04/21 06:28:20;;;;;;;14.13;2.30;;;4.30;99.90;;;;;;5336383;26;20565;-72
2024/04/21 06:30:47;;;;;;;17.57;5.40;;;4.30;99.90;;;;;;5350387;26;20470;-69
2024/04/21 06:33:19;;;;;;;11.90;2.67;;;4.30;99.90;;;;;;5328267;26;20560;-70
2024/04/21 06:35:47;;;;;;;10.10;2.20;;;4.40;99.90;;;;;;5340484;26;20459;-69
2024/04/21 06:38:16;;;;;;;8.47;2.43;;;4.60;99.90;;;;;;5336775;26;20510;-70
2024/04/21 06:40:46;;;;;;;8.20;2.30;;;4.60;99.90;;;;;;5339687;26;20597;-70
2024/04/21 06:43:13;;;;;;;10.30;2.40;;;4.70;99.90;;;;;;5339413;26;20472;-71
2024/04/21 06:45:47;;;;;;;9.93;2.40;;;4.60;99.90;;;;;;5338406;26;20480;-71
2024/04/21 06:48:17;;;;;;;10.30;2.27;;;4.70;99.90;;;;;;5333031;26;20523;-73
2024/04/21 06:50:47;;;;;;;15.30;4.10;;;4.60;99.90;;;;;;5337042;26;20475;-70
2024/04/21 06:53:14;;;;;;;11.67;2.90;;;4.50;99.90;;;;;;5339239;26;20928;-71
2024/04/21 06:55:44;;;;;;;10.30;2.90;;;4.30;99.90;;;;;;5338460;26;20479;-69
2024/04/21 06:58:12;;;;;;;11.97;2.93;;;4.40;99.90;;;;;;5339170;26;20475;-69
2024/04/21 07:00:42;;;;;;;9.00;2.23;;;4.50;99.90;;;;;;5339029;26;21032;-69
2024/04/21 07:03:10;;;;;;;11.40;2.63;;;4.60;99.90;;;;;;5333661;26;21269;-70
2024/04/21 07:05:42;;;;;;;8.77;3.17;;;4.50;99.90;;;;;;5338573;26;20556;-69
2024/04/21 07:08:09;;;;;;;17.43;3.33;;;4.50;99.90;;;;;;5332285;26;20474;-69
2024/04/21 07:10:39;;;;;;;10.83;2.47;;;4.50;99.90;;;;;;5334159;26;20521;-70
2024/04/21 07:13:06;;;;;;;15.03;3.10;;;4.60;99.90;;;;;;5339480;26;20559;-69
2024/04/21 07:15:36;;;;;;;10.40;2.97;;;4.60;99.90;;;;;;5331638;26;20534;-70
2024/04/21 07:18:04;;;;;;;9.77;2.40;;;4.60;99.90;;;;;;5332202;26;20475;-72
2024/04/21 07:20:34;;;;;;;8.97;2.40;;;4.70;99.90;;;;;;5328129;26;20522;-71
2024/04/21 07:23:03;;;;;;;11.77;2.97;;;4.70;99.90;;;;;;5337818;26;21079;-70
2024/04/21 07:25:33;;;;;;;11.80;2.70;;;4.80;99.90;;;;;;5339328;26;20519;-72
2024/04/21 07:28:01;;;;;;;11.43;2.60;;;4.80;99.90;;;;;;5338518;26;20464;-69
2024/04/21 07:30:31;;;;;;;8.33;2.13;;;4.70;99.90;;;;;;5335901;26;20476;-70
2024/04/21 07:32:58;;;;;;;12.10;2.40;;;4.80;99.90;;;;;;5338323;26;20471;-70
2024/04/21 07:35:27;;;;;;;11.47;2.40;;;4.80;99.90;;;;;;5329833;26;20582;-72
2024/04/21 07:37:55;;;;;;;9.90;2.20;;;4.70;99.90;;;;;;5338220;26;20464;-71
2024/04/21 07:40:27;;;;;;;9.43;2.43;;;4.80;99.90;;;;;;5337785;26;20528;-71
2024/04/21 07:42:54;;;;;;;8.87;2.10;;;4.90;99.90;;;;;;5338450;26;21090;-70
2024/04/21 07:45:24;;;;;;;9.80;2.20;;;4.80;99.90;;;;;;5338141;26;20467;-70
2024/04/21 07:47:51;;;;;;;10.60;2.70;;;4.80;99.90;;;;;;5338460;26;20568;-71
2024/04/21 07:50:21;;;;;;;10.87;2.70;;;4.90;99.90;;;;;;5337236;26;20536;-69
2024/04/21 07:52:48;;;;;;;10.43;2.50;;;5.00;99.90;;;;;;5337201;26;20888;-72
2024/04/21 07:55:18;;;;;;;12.23;3.07;;;5.00;99.90;;;;;;5333944;26;20475;-70
2024/04/21 07:57:48;;;;;;;9.23;2.67;;;5.10;99.90;;;;;;5335969;26;20464;-71
2024/04/21 08:00:18;;;;;;;8.50;2.33;;;5.20;99.90;;;;;;5332549;26;20476;-69
2024/04/21 08:02:46;;;;;;;8.90;2.20;;;5.30;99.90;;;;;;5335460;26;20801;-70
2024/04/21 08:05:16;;;;;;;11.20;1.90;;;5.40;99.90;;;;;;5335299;26;20476;-68
2024/04/21 08:07:43;;;;;;;8.43;1.70;;;5.30;99.90;;;;;;5336388;26;20510;-68
2024/04/21 08:10:13;;;;;;;9.23;1.80;;;5.10;99.90;;;;;;5334233;26;20861;-71
2024/04/21 08:12:40;;;;;;;9.20;2.00;;;4.90;99.90;;;;;;5335717;26;20810;-71
2024/04/21 08:15:12;;;;;;;10.30;2.37;;;4.70;99.90;;;;;;5335036;26;20469;-70
2024/04/21 08:17:39;;;;;;;14.23;2.80;;;4.80;99.90;;;;;;5330230;26;20479;-69
2024/04/21 08:20:10;;;;;;;10.57;2.17;;;4.90;99.90;;;;;;5334598;26;20582;-69
2024/04/21 08:22:37;;;;;;;10.37;1.97;;;5.00;99.90;;;;;;5330636;26;20515;-70
2024/04/21 08:25:07;;;;;;;12.60;4.73;;;4.90;99.90;;;;;;5337149;26;20507;-69
2024/04/21 08:27:35;;;;;;;10.27;1.60;;;4.90;99.90;;;;;;5337934;26;20471;-71
2024/04/21 08:30:05;;;;;;;9.13;2.03;;;4.90;99.90;;;;;;5334673;26;20472;-70
2024/04/21 08:32:35;;;;;;;9.30;2.13;;;4.90;99.90;;;;;;5338148;26;20520;-69
2024/04/21 08:35:05;;;;;;;10.33;2.20;;;5.00;99.90;;;;;;5338757;26;20465;-70
2024/04/21 08:37:33;;;;;;;10.53;1.90;;;5.20;99.90;;;;;;5338158;26;20818;-70
2024/04/21 08:40:02;;;;;;;10.60;1.70;;;5.20;99.90;;;;;;5336809;26;20951;-72
2024/04/21 08:42:34;;;;;;;8.20;1.60;;;5.20;99.90;;;;;;5339655;26;20475;-71
2024/04/21 08:45:04;;;;;;;9.93;1.57;;;5.20;99.90;;;;;;5327293;26;20536;-68
2024/04/21 08:47:35;;;;;;;11.60;2.30;;;5.40;99.90;;;;;;5339178;26;20471;-68
2024/04/21 08:50:05;;;;;;;9.67;2.10;;;5.60;99.90;;;;;;5340154;26;20481;-69
2024/04/21 08:52:33;;;;;;;8.80;1.67;;;5.70;99.90;;;;;;5340867;26;20592;-68
2024/04/21 08:55:03;;;;;;;8.43;1.40;;;5.80;99.90;;;;;;5341356;26;20519;-72
2024/04/21 08:57:33;;;;;;;7.53;1.27;;;5.80;99.90;;;;;;5340028;26;20697;-69
2024/04/21 09:00:04;;;;;;;8.63;1.67;;;5.60;99.90;;;;;;5337154;26;20474;-68
2024/04/21 09:02:31;;;;;;;7.77;1.57;;;5.50;99.90;;;;;;5339183;26;20483;-69
2024/04/21 09:05:04;;;;;;;9.23;3.73;;;5.60;99.90;;;;;;5331887;26;20524;-70
2024/04/21 09:07:31;;;;;;;11.33;1.77;;;5.70;99.90;;;;;;5340614;26;20830;-68
2024/04/21 09:10:01;;;;;;;9.90;1.50;;;6.00;99.90;;;;;;5340374;26;20542;-68
2024/04/21 09:12:30;;;;;;;12.30;1.73;;;6.50;99.90;;;;;;5336598;26;20482;-68
2024/04/21 09:15:00;;;;;;;8.80;1.50;;;6.90;99.90;;;;;;5339118;26;20533;-68
2024/04/21 09:17:28;;;;;;;8.30;1.50;;;6.90;99.90;;;;;;5344328;26;20466;-68
2024/04/21 09:19:58;;;;;;;8.80;1.70;;;6.70;99.90;;;;;;5354536;26;20525;-71
2024/04/21 09:22:28;;;;;;;7.03;1.43;;;6.40;99.90;;;;;;5341757;26;20459;-70
2024/04/21 09:24:57;;;;;;;7.87;1.43;;;6.30;99.90;;;;;;5351588;26;20522;-70
2024/04/21 09:27:25;;;;;;;11.33;1.67;;;6.30;99.90;;;;;;5355321;26;20469;-68
2024/04/21 09:29:57;;;;;;;8.03;1.27;;;6.30;99.90;;;;;;5344251;26;20534;-68
2024/04/21 09:32:25;;;;;;;8.40;1.50;;;6.40;99.90;;;;;;5343827;26;20542;-69
2024/04/21 09:34:56;;;;;;;11.00;1.70;;;6.60;99.90;;;;;;5348025;26;20474;-68
2024/04/21 09:37:23;;;;;;;8.30;1.43;;;7.10;99.90;;;;;;5337109;26;20558;-68
2024/04/21 09:39:57;;;;;;;8.03;1.77;;;7.40;99.90;;;;;;5340165;26;20542;-68
2024/04/21 09:42:28;;;;;;;7.70;1.40;;;7.40;99.90;;;;;;5339491;26;20468;-69
2024/04/21 09:44:58;;;;;;;9.93;1.40;;;7.50;99.90;;;;;;5349200;26;20526;-69
2024/04/21 09:47:28;;;;;;;9.20;1.83;;;7.20;99.90;;;;;;5344947;26;20945;-67
2024/04/21 09:50:00;;;;;;;7.90;1.33;;;6.80;99.90;;;;;;5350156;26;20530;-68
2024/04/21 09:52:28;;;;;;;8.67;1.20;;;6.50;99.90;;;;;;5347923;26;20484;-69
2024/04/21 09:55:01;;;;;;;8.90;1.27;;;6.50;99.90;;;;;;5338956;26;20490;-70
2024/04/21 09:57:32;;;;;;;8.73;1.30;;;6.80;99.90;;;;;;5330295;26;21115;-67
2024/04/21 10:00:04;;;;;;;10.17;1.67;;;6.90;99.90;;;;;;5337109;26;20530;-70
2024/04/21 10:02:36;;;;;;;7.57;1.50;;;7.00;99.90;;;;;;5332721;26;20483;-70
2024/04/21 10:05:11;;;;;;;12.17;1.80;;;7.20;99.90;;;;;;5336433;26;20498;-71
2024/04/21 10:07:39;;;;;;;8.10;1.50;;;7.90;99.90;;;;;;5337921;26;20479;-72
2024/04/21 10:10:16;;;;;;;8.40;1.50;;;8.50;99.90;;;;;;5333986;26;20565;-71
2024/04/21 10:12:44;;;;;;;12.90;1.73;;;9.00;99.90;;;;;;5332436;26;21013;-70
2024/04/21 10:15:16;;;;;;;7.97;1.57;;;9.50;99.90;;;;;;5334214;26;20904;-70
2024/04/21 10:17:54;;;;;;;7.47;1.40;;;9.30;99.20;;;;;;5327616;26;20472;-69
2024/04/21 10:20:31;;;;;;;8.20;1.33;;;9.70;99.90;;;;;;5333746;26;20542;-70
2024/04/21 10:22:59;;;;;;;7.70;1.40;;;10.00;97.60;;;;;;5338087;26;20602;-70
2024/04/21 10:25:34;;;;;;;8.87;1.40;;;10.10;92.70;;;;;;5336080;26;20463;-70
2024/04/21 10:28:05;;;;;;;8.60;1.87;;;9.90;94.50;;;;;;5335365;26;20535;-71
2024/04/21 10:30:36;;;;;;;10.03;1.40;;;9.70;92.60;;;;;;5335715;26;20583;-72
2024/04/21 10:33:04;;;;;;;7.93;1.30;;;9.00;93.90;;;;;;5336361;26;20467;-71
2024/04/21 10:35:35;;;;;;;7.50;1.30;;;8.60;93.30;;;;;;5332473;26;20525;-68
2024/04/21 10:38:07;;;;;;;9.27;1.40;;;8.20;97.50;;;;;;5333956;26;20476;-70
2024/04/21 10:40:41;;;;;;;10.20;1.50;;;7.90;97.50;;;;;;5334246;26;20493;-69
2024/04/21 10:43:08;;;;;;;8.80;1.63;;;7.80;95.80;;;;;;5334022;26;20559;-68
2024/04/21 10:45:39;;;;;;;6.80;1.40;;;7.70;97.90;;;;;;5332963;26;21000;-70
2024/04/21 10:48:08;;;;;;;7.93;1.30;;;8.10;97.40;;;;;;5333830;26;20523;-69
2024/04/21 10:50:39;;;;;;;7.57;1.30;;;8.30;95.60;;;;;;5335252;26;21076;-70
2024/04/21 10:53:07;;;;;;;7.87;1.60;;;8.50;94.80;;;;;;5333686;26;20533;-68
2024/04/21 10:55:40;;;;;;;10.40;1.40;;;8.90;95.70;;;;;;5335467;26;20622;-68
2024/04/21 10:58:08;;;;;;;10.93;1.70;;;9.20;96.80;;;;;;5331509;26;20562;-68
2024/04/21 11:00:39;;;;;;;14.23;1.83;;;9.60;97.90;;;;;;5332891;26;20530;-71
2024/04/21 11:03:07;;;;;;;7.73;1.53;;;9.40;93.40;;;;;;5329359;26;20478;-69
2024/04/21 11:05:44;;;;;;;7.33;1.50;;;8.90;93.50;;;;;;5329817;26;20486;-69
2024/04/21 11:08:11;;;;;;;9.00;1.10;;;8.50;91.70;;;;;;5331801;26;20987;-70
2024/04/21 11:10:44;;;;;;;7.80;1.20;;;8.20;92.40;;;;;;5332007;26;20469;-70
2024/04/21 11:13:11;;;;;;;6.07;1.03;;;8.30;93.80;;;;;;5330172;26;20559;-70
2024/04/21 11:15:42;;;;;;;6.73;1.10;;;8.50;92.30;;;;;;5330622;26;20481;-69
2024/04/21 11:18:12;;;;;;;9.97;1.63;;;8.60;91.40;;;;;;5331940;26;20477;-72
2024/04/21 11:20:42;;;;;;;8.33;1.93;;;8.60;90.10;;;;;;5334372;26;20485;-69
2024/04/21 11:23:09;;;;;;;7.67;1.30;;;8.50;90.70;;;;;;5333714;26;21127;-69
2024/04/21 11:25:39;;;;;;;11.83;1.63;;;8.50;90.60;;;;;;5333493;26;20456;-69
2024/04/21 11:28:14;;;;;;;6.70;1.37;;;8.60;91.60;;;;;;5332793;26;20472;-69
2024/04/21 11:30:44;;;;;;;8.13;1.10;;;8.90;84.30;;;;;;5332735;26;20477;-69
2024/04/21 11:33:12;;;;;;;7.67;1.17;;;9.10;84.90;;;;;;5333532;26;20517;-69
2024/04/21 11:35:43;;;;;;;9.37;1.40;;;9.50;82.00;;;;;;5333470;26;20941;-70
2024/04/21 11:38:10;;;;;;;7.97;1.10;;;9.70;83.40;;;;;;5331861;26;20475;-72
2024/04/21 11:40:41;;;;;;;8.73;1.13;;;9.90;83.20;;;;;;5330500;26;20551;-70
2024/04/21 11:43:10;;;;;;;7.67;1.47;;;9.60;85.80;;;;;;5331368;26;20819;-73
2024/04/21 11:45:46;;;;;;;8.67;1.33;;;9.00;90.60;;;;;;5333632;26;20839;-70
2024/04/21 11:48:13;;;;;;;9.57;2.20;;;8.30;91.90;;;;;;5329740;26;20483;-70
2024/04/21 11:50:43;;;;;;;8.50;1.40;;;7.90;92.20;;;;;;5331677;26;21099;-69
2024/04/21 11:53:11;;;;;;;8.20;1.30;;;7.80;93.00;;;;;;5330132;26;20516;-73
2024/04/21 11:55:41;;;;;;;10.30;1.70;;;8.00;93.50;;;;;;5334651;26;20542;-70
2024/04/21 11:58:08;;;;;;;10.20;1.30;;;8.50;91.40;;;;;;5331793;26;20529;-70
2024/04/21 12:00:38;;;;;;;7.33;1.20;;;8.60;90.00;;;;;;5330987;26;20485;-69
2024/04/21 12:03:08;;;;;;;8.47;1.90;;;8.60;91.60;;;;;;5331410;26;20589;-69
2024/04/21 12:05:37;;;;;;;7.40;1.23;;;8.60;91.60;;;;;;5330532;26;20476;-70
2024/04/21 12:08:05;;;;;;;8.00;1.00;;;8.50;91.40;;;;;;5334605;26;20460;-72
2024/04/21 12:10:35;;;;;;;7.07;1.50;;;8.20;91.00;;;;;;5333619;26;20553;-71
2024/04/21 12:13:03;;;;;;;8.47;1.57;;;8.00;91.30;;;;;;5331950;26;20461;-71
2024/04/21 12:15:32;;;;;;;6.73;1.30;;;8.00;91.00;;;;;;5337254;26;20586;-72
2024/04/21 12:18:08;;;;;;;8.00;2.20;;;8.00;92.50;;;;;;5337119;26;20468;-70
2024/04/21 12:20:38;;;;;;;7.97;1.40;;;8.00;93.00;;;;;;5334551;26;20480;-70
2024/04/21 12:23:07;;;;;;;8.77;1.57;;;8.10;92.50;;;;;;5335273;26;20472;-70
2024/04/21 12:25:37;;;;;;;8.73;1.30;;;8.50;92.90;;;;;;5336882;26;20475;-70
2024/04/21 12:28:05;;;;;;;8.07;1.30;;;8.90;92.60;;;;;;5338216;26;20529;-69
2024/04/21 12:30:37;;;;;;;8.10;1.30;;;9.30;90.80;;;;;;5338871;26;21020;-68
2024/04/21 12:33:12;;;;;;;7.23;1.33;;;9.60;90.30;;;;;;5339613;26;20525;-72
2024/04/21 12:35:42;;;;;;;9.43;1.83;;;9.60;90.20;;;;;;5338374;26;20940;-70
2024/04/21 12:38:09;;;;;;;7.00;1.40;;;9.40;86.50;;;;;;5335561;26;20482;-72
2024/04/21 12:40:39;;;;;;;7.60;1.10;;;9.20;86.90;;;;;;5336239;26;20531;-69
2024/04/21 12:43:06;;;;;;;7.63;1.60;;;9.30;89.20;;;;;;5335980;26;20533;-70
2024/04/21 12:45:35;;;;;;;8.60;1.40;;;9.20;90.60;;;;;;5333336;26;20474;-69
2024/04/21 12:48:04;;;;;;;8.20;1.30;;;9.10;91.50;;;;;;5336509;26;20530;-69
2024/04/21 12:50:37;;;;;;;7.83;1.30;;;9.40;90.30;;;;;;5335207;26;20493;-70
2024/04/21 12:53:04;;;;;;;7.50;1.40;;;10.70;88.00;;;;;;5338284;26;20999;-71
2024/04/21 12:55:34;;;;;;;9.83;1.60;;;11.20;86.40;;;;;;5338498;26;21242;-69
2024/04/21 12:58:01;;;;;;;7.63;1.60;;;10.80;85.80;;;;;;5337136;26;20531;-69
2024/04/21 13:00:31;;;;;;;8.50;1.30;;;10.90;83.80;;;;;;5341635;26;20486;-71
2024/04/21 13:02:58;;;;;;;9.10;1.50;;;10.70;81.90;;;;;;5342321;26;20463;-70